createdAt,value
2022-10-22T00:02:22.183Z,95762.75
2022-10-22T00:04:50.130Z,95762.72
2022-10-22T00:07:18.558Z,95749.84
2022-10-22T00:09:45.420Z,95745.47
2022-10-22T00:12:12.701Z,95738.28
2022-10-22T00:14:39.984Z,95748.28
2022-10-22T00:17:10.556Z,95750.97
2022-10-22T00:19:38.205Z,95753.22
2022-10-22T00:22:07.749Z,95734.75
2022-10-22T00:24:35.709Z,95748.75
2022-10-22T00:27:02.848Z,95736.50
2022-10-22T00:29:29.589Z,95737.97
2022-10-22T00:31:56.663Z,95753.28
2022-10-22T00:34:23.892Z,95742.44
2022-10-22T00:36:51.855Z,95749.56
2022-10-22T00:39:20.673Z,95764.19
2022-10-22T00:41:48.951Z,95778.56
2022-10-22T00:44:53.263Z,95787.94
2022-10-22T00:47:22.677Z,95806.38
2022-10-22T00:49:50.318Z,95821.44
2022-10-22T00:52:16.894Z,95816.13
2022-10-22T00:54:44.445Z,95834.91
2022-10-22T00:57:11.161Z,95835.66
2022-10-22T00:59:38.376Z,95831.22
2022-10-22T01:02:05.077Z,95819.00
2022-10-22T01:04:31.871Z,95793.53
2022-10-22T01:06:58.379Z,95811.03
2022-10-22T01:09:36.642Z,95805.28
2022-10-22T01:12:09.883Z,95806.00
2022-10-22T01:15:01.873Z,95811.53
2022-10-22T01:17:41.563Z,95795.00
2022-10-22T01:20:32.033Z,95806.59
2022-10-22T01:23:10.823Z,95790.00
2022-10-22T01:25:43.072Z,95782.53
2022-10-22T01:28:38.032Z,95792.84
2022-10-22T01:31:06.131Z,95788.19
2022-10-22T01:33:33.885Z,95790.56
2022-10-22T01:36:01.125Z,95769.44
2022-10-22T01:38:27.729Z,95771.00
2022-10-22T01:40:55.509Z,95790.59
2022-10-22T01:43:22.250Z,95788.41
2022-10-22T01:45:52.555Z,95794.88
2022-10-22T01:48:28.175Z,95798.44
2022-10-22T01:50:57.733Z,95796.34
2022-10-22T01:53:46.604Z,95799.19
2022-10-22T01:56:36.447Z,95801.16
2022-10-22T01:59:35.154Z,95782.22
2022-10-22T02:02:26.861Z,95791.06
2022-10-22T02:05:14.679Z,95803.31
2022-10-22T02:07:50.838Z,95816.81
2022-10-22T02:10:19.155Z,95816.44
2022-10-22T02:12:50.352Z,95810.69
2022-10-22T02:15:20.136Z,95826.47
2022-10-22T02:17:48.069Z,95822.28
2022-10-22T02:20:22.750Z,95832.25
2022-10-22T02:22:49.894Z,95834.28
2022-10-22T02:25:16.754Z,95819.03
2022-10-22T02:27:56.999Z,95838.56
2022-10-22T02:30:23.766Z,95834.06
2022-10-22T02:32:56.872Z,95846.13
2022-10-22T02:35:26.019Z,95862.28
2022-10-22T02:37:54.777Z,95854.38
2022-10-22T02:40:22.344Z,95866.44
2022-10-22T02:42:50.487Z,95863.34
2022-10-22T02:45:18.571Z,95873.44
2022-10-22T02:47:45.499Z,95878.34
2022-10-22T02:50:12.059Z,95884.84
2022-10-22T02:52:38.953Z,95887.06
2022-10-22T02:55:06.516Z,95881.28
2022-10-22T02:57:33.433Z,95862.88
2022-10-22T03:00:00.016Z,95852.25
2022-10-22T03:02:26.508Z,95866.56
2022-10-22T03:04:53.062Z,95841.88
2022-10-22T03:07:19.542Z,95856.59
2022-10-22T03:09:46.576Z,95874.00
2022-10-22T03:12:13.184Z,95852.16
2022-10-22T03:14:39.719Z,95845.53
2022-10-22T03:17:06.262Z,95856.53
2022-10-22T03:19:32.827Z,95846.88
2022-10-22T03:22:02.328Z,95867.41
2022-10-22T03:24:34.178Z,95851.28
2022-10-22T03:27:00.940Z,95864.47
2022-10-22T03:29:28.144Z,95867.34
2022-10-22T03:31:55.549Z,95866.50
2022-10-22T03:34:22.164Z,95861.84
2022-10-22T03:36:49.767Z,95885.00
2022-10-22T03:39:19.178Z,95878.28
2022-10-22T03:41:48.169Z,95887.88
2022-10-22T03:44:16.807Z,95887.06
2022-10-22T03:46:43.438Z,95892.59
2022-10-22T03:49:10.085Z,95915.25
2022-10-22T03:51:36.642Z,95915.78
2022-10-22T03:54:03.956Z,95897.38
2022-10-22T03:56:30.563Z,95907.63
2022-10-22T03:58:58.432Z,95930.88
2022-10-22T04:01:25.623Z,95933.72
2022-10-22T04:03:52.244Z,95913.25
2022-10-22T04:06:18.780Z,95926.00
2022-10-22T04:08:45.941Z,95926.59
2022-10-22T04:11:14.602Z,95930.13
2022-10-22T04:13:41.359Z,95931.34
2022-10-22T04:16:12.087Z,95921.13
2022-10-22T04:18:40.080Z,95938.88
2022-10-22T04:21:09.078Z,95927.31
2022-10-22T04:23:35.708Z,95917.38
2022-10-22T04:26:05.379Z,95919.53
2022-10-22T04:28:31.963Z,95899.84
2022-10-22T04:30:58.675Z,95911.38
2022-10-22T04:33:25.310Z,95917.06
2022-10-22T04:35:51.915Z,95918.94
2022-10-22T04:38:18.430Z,95907.28
2022-10-22T04:40:45.000Z,95926.28
2022-10-22T04:43:11.511Z,95921.13
2022-10-22T04:45:38.038Z,95922.19
2022-10-22T04:48:04.829Z,95916.72
2022-10-22T04:50:31.387Z,95903.66
2022-10-22T04:52:57.895Z,95914.59
2022-10-22T04:55:24.442Z,95917.59
2022-10-22T04:57:50.974Z,95910.91
2022-10-22T05:00:17.702Z,95899.13
2022-10-22T05:02:49.289Z,95913.34
2022-10-22T05:05:15.834Z,95916.06
2022-10-22T05:07:42.683Z,95884.84
2022-10-22T05:10:09.954Z,95896.97
2022-10-22T05:12:36.526Z,95910.78
2022-10-22T05:15:03.172Z,95899.38
2022-10-22T05:17:29.750Z,95903.91
2022-10-22T05:19:56.281Z,95901.25
2022-10-22T05:22:22.786Z,95912.72
2022-10-22T05:24:49.338Z,95883.66
2022-10-22T05:27:15.860Z,95905.25
2022-10-22T05:29:42.424Z,95910.41
2022-10-22T05:32:09.050Z,95901.59
2022-10-22T05:34:36.219Z,95929.72
2022-10-22T05:37:02.807Z,95927.00
2022-10-22T05:39:29.390Z,95940.81
2022-10-22T05:41:55.957Z,95930.75
2022-10-22T05:44:22.522Z,95937.94
2022-10-22T05:46:49.100Z,95934.25
2022-10-22T05:49:16.089Z,95939.47
2022-10-22T05:51:42.959Z,95949.09
2022-10-22T05:54:16.867Z,95949.22
2022-10-22T05:56:43.327Z,95957.78
2022-10-22T05:59:11.183Z,95952.81
2022-10-22T06:01:39.877Z,95926.59
2022-10-22T06:04:10.150Z,95923.19
2022-10-22T06:06:55.112Z,95926.16
2022-10-22T06:09:30.935Z,95949.28
2022-10-22T06:11:58.441Z,95952.75
2022-10-22T06:14:25.842Z,95959.44
2022-10-22T06:16:53.019Z,95967.22
2022-10-22T06:19:21.767Z,95952.09
2022-10-22T06:21:48.769Z,95972.44
2022-10-22T06:24:16.293Z,95972.44
2022-10-22T06:26:42.874Z,95967.44
2022-10-22T06:29:09.884Z,95965.31
2022-10-22T06:31:39.271Z,95965.81
2022-10-22T06:34:08.194Z,95962.88
2022-10-22T06:36:34.962Z,95985.25
2022-10-22T06:39:01.684Z,95980.84
2022-10-22T06:41:28.929Z,95985.97
2022-10-22T06:43:57.888Z,95976.59
2022-10-22T06:46:26.152Z,95978.19
2022-10-22T06:49:00.501Z,95982.72
2022-10-22T06:51:28.061Z,95976.91
2022-10-22T06:53:55.606Z,95956.50
2022-10-22T06:56:24.541Z,95993.88
2022-10-22T06:58:53.002Z,95994.13
2022-10-22T07:01:22.313Z,95996.13
2022-10-22T07:03:51.720Z,96028.06
2022-10-22T07:06:19.291Z,95995.66
2022-10-22T07:08:45.978Z,96020.75
2022-10-22T07:11:18.185Z,96039.63
2022-10-22T07:13:45.776Z,96042.44
2022-10-22T07:16:13.064Z,96060.53
2022-10-22T07:18:40.545Z,96073.47
2022-10-22T07:21:08.518Z,96070.47
2022-10-22T07:23:35.281Z,96080.47
2022-10-22T07:26:06.596Z,96077.47
2022-10-22T07:28:33.940Z,96083.41
2022-10-22T07:31:00.852Z,96074.16
2022-10-22T07:33:27.585Z,96084.13
2022-10-22T07:36:02.409Z,96091.44
2022-10-22T07:38:29.437Z,96092.91
2022-10-22T07:40:56.322Z,96097.91
2022-10-22T07:43:23.518Z,96106.66
2022-10-22T07:45:50.639Z,96095.16
2022-10-22T07:48:17.801Z,96105.88
2022-10-22T07:53:10.935Z,96110.34
2022-10-22T07:55:37.840Z,96097.75
2022-10-22T07:58:04.519Z,96110.84
2022-10-22T08:00:31.288Z,96109.59
2022-10-22T08:02:57.796Z,96124.97
2022-10-22T08:05:24.342Z,96116.94
2022-10-22T08:07:50.886Z,96125.75
2022-10-22T08:10:17.631Z,96098.03
2022-10-22T08:12:44.416Z,96130.09
2022-10-22T08:15:11.259Z,96125.25
2022-10-22T08:17:37.953Z,96121.34
2022-10-22T08:20:04.754Z,96137.59
2022-10-22T08:22:31.545Z,96146.06
2022-10-22T08:24:59.157Z,96157.22
2022-10-22T08:27:25.995Z,96162.25
2022-10-22T08:29:52.587Z,96158.84
2022-10-22T08:32:19.226Z,96142.00
2022-10-22T08:34:45.775Z,96157.38
2022-10-22T08:37:14.348Z,96160.91
2022-10-22T08:39:41.470Z,96168.41
2022-10-22T08:42:26.334Z,96177.25
2022-10-22T08:45:19.984Z,96169.44
2022-10-22T08:47:55.798Z,96177.38
2022-10-22T08:50:27.572Z,96178.72
2022-10-22T08:52:58.090Z,96172.22
2022-10-22T08:55:25.412Z,96159.78
2022-10-22T08:57:54.950Z,96165.25
2022-10-22T09:00:34.993Z,96180.31
2022-10-22T09:03:16.722Z,96196.22
2022-10-22T09:05:55.139Z,96187.59
2022-10-22T09:08:23.336Z,96193.22
2022-10-22T09:10:57.304Z,96196.84
2022-10-22T09:13:24.210Z,96195.94
2022-10-22T09:16:10.368Z,96188.22
2022-10-22T09:18:45.256Z,96190.34
2022-10-22T09:21:27.869Z,96202.22
2022-10-22T09:24:11.138Z,96203.72
2022-10-22T09:26:40.508Z,96204.47
2022-10-22T09:29:13.767Z,96200.97
2022-10-22T09:31:40.419Z,96214.00
2022-10-22T09:34:07.702Z,96213.28
2022-10-22T09:36:34.946Z,96204.66
2022-10-22T09:39:02.187Z,96208.53
2022-10-22T09:41:30.078Z,96208.53
2022-10-22T09:43:57.572Z,96211.41
2022-10-22T09:46:28.566Z,96212.19
2022-10-22T09:49:13.081Z,96215.91
2022-10-22T09:52:00.227Z,96219.56
2022-10-22T09:54:32.931Z,96224.09
2022-10-22T09:57:16.655Z,96211.81
2022-10-22T09:59:47.310Z,96216.28
2022-10-22T10:02:37.102Z,96227.97
2022-10-22T10:05:05.209Z,96203.91
2022-10-22T10:07:33.964Z,96220.69
2022-10-22T10:10:00.636Z,96219.53
2022-10-22T10:12:43.847Z,96228.97
2022-10-22T10:15:37.503Z,96221.22
2022-10-22T10:18:23.815Z,96216.94
2022-10-22T10:21:20.267Z,96205.16
2022-10-22T10:24:03.451Z,96215.78
2022-10-22T10:26:43.445Z,96211.56
2022-10-22T10:29:39.297Z,96213.16
2022-10-22T10:32:33.756Z,96214.75
2022-10-22T10:35:22.197Z,96206.28
2022-10-22T10:38:00.806Z,96215.47
2022-10-22T10:40:36.904Z,96207.56
2022-10-22T10:43:28.143Z,96206.88
2022-10-22T10:46:12.315Z,96195.22
2022-10-22T10:48:57.651Z,96208.41
2022-10-22T10:51:49.348Z,96207.06
2022-10-22T10:54:31.564Z,96194.94
2022-10-22T10:57:03.284Z,96203.66
2022-10-22T10:59:50.689Z,96201.59
2022-10-22T11:02:45.758Z,96203.19
2022-10-22T11:05:24.815Z,96198.28
2022-10-22T11:08:10.880Z,96191.25
2022-10-22T11:10:43.738Z,96185.53
2022-10-22T11:13:21.212Z,96183.56
2022-10-22T11:15:55.273Z,96183.84
2022-10-22T11:18:35.653Z,96182.59
2022-10-22T11:21:16.743Z,96193.63
2022-10-22T11:24:04.555Z,96196.66
2022-10-22T11:26:38.842Z,96193.19
2022-10-22T11:29:11.471Z,96197.59
2022-10-22T11:31:38.946Z,96196.44
2022-10-22T11:34:33.214Z,96192.22
2022-10-22T11:37:02.528Z,96196.69
2022-10-22T11:39:43.757Z,96186.69
2022-10-22T11:42:18.243Z,96183.19
2022-10-22T11:45:27.050Z,96186.22
2022-10-22T11:47:57.555Z,96179.03
2022-10-22T11:50:47.050Z,96179.31
2022-10-22T11:53:13.558Z,96178.66
2022-10-22T11:55:45.526Z,96174.50
2022-10-22T11:58:39.384Z,96181.16
2022-10-22T12:01:08.972Z,96176.25
2022-10-22T12:03:37.047Z,96171.22
2022-10-22T12:06:28.510Z,96182.09
2022-10-22T12:09:19.442Z,96182.88
2022-10-22T12:11:50.993Z,96178.50
2022-10-22T12:14:29.996Z,96168.44
2022-10-22T12:16:59.189Z,96166.34
2022-10-22T12:19:48.123Z,96169.28
2022-10-22T12:22:33.115Z,96168.72
2022-10-22T12:25:02.224Z,96177.34
2022-10-22T12:27:44.419Z,96165.84
2022-10-22T12:30:22.415Z,96169.47
2022-10-22T12:32:52.781Z,96160.78
2022-10-22T12:35:22.343Z,96159.41
2022-10-22T12:37:55.053Z,96156.56
2022-10-22T12:40:23.984Z,96155.19
2022-10-22T12:42:52.920Z,96152.28
2022-10-22T12:45:22.921Z,96151.50
2022-10-22T12:47:58.342Z,96153.81
2022-10-22T12:50:41.276Z,96156.69
2022-10-22T12:53:22.228Z,96150.09
2022-10-22T12:55:52.288Z,96159.66
2022-10-22T12:58:22.204Z,96161.03
2022-10-22T13:00:49.076Z,96159.66
2022-10-22T13:03:38.714Z,96153.97
2022-10-22T13:06:33.804Z,96152.53
2022-10-22T13:09:00.589Z,96148.97
2022-10-22T13:11:54.056Z,96149.72
2022-10-22T13:14:25.130Z,96149.81
2022-10-22T13:17:14.759Z,96146.97
2022-10-22T13:19:43.849Z,96139.09
2022-10-22T13:22:28.607Z,96143.50
2022-10-22T13:24:59.863Z,96134.88
2022-10-22T13:27:28.341Z,96147.13
2022-10-22T13:29:57.033Z,96146.47
2022-10-22T13:32:33.424Z,96144.09
2022-10-22T13:35:03.958Z,96155.84
2022-10-22T13:37:34.118Z,96142.78
2022-10-22T13:40:00.654Z,96137.97
2022-10-22T13:42:27.269Z,96143.06
2022-10-22T13:44:53.840Z,96139.47
2022-10-22T13:47:26.816Z,96134.28
2022-10-22T13:50:01.948Z,96146.75
2022-10-22T13:52:38.337Z,96148.13
2022-10-22T13:55:26.799Z,96146.03
2022-10-22T13:57:56.638Z,96151.81
2022-10-22T14:00:24.325Z,96148.88
2022-10-22T14:02:54.486Z,96150.34
2022-10-22T14:05:21.472Z,96153.19
2022-10-22T14:07:50.483Z,96146.66
2022-10-22T14:10:23.009Z,96150.97
2022-10-22T14:12:53.242Z,96155.28
2022-10-22T14:15:24.093Z,96150.91
2022-10-22T14:17:55.888Z,96159.56
2022-10-22T14:20:25.888Z,96151.59
2022-10-22T14:22:52.926Z,96149.94
2022-10-22T14:25:22.126Z,96147.13
2022-10-22T14:27:49.521Z,96158.09
2022-10-22T14:30:21.749Z,96159.53
2022-10-22T14:32:48.869Z,96163.16
2022-10-22T14:35:21.224Z,96170.34
2022-10-22T14:37:48.316Z,96157.91
2022-10-22T14:40:18.367Z,96159.53
2022-10-22T14:42:48.365Z,96164.56
2022-10-22T14:45:25.123Z,96170.34
2022-10-22T14:47:54.855Z,96171.69
2022-10-22T14:50:21.914Z,96169.56
2022-10-22T14:52:48.814Z,96177.50
2022-10-22T14:55:18.656Z,96160.09
2022-10-22T14:57:45.627Z,96166.72
2022-10-22T15:00:15.874Z,96174.59
2022-10-22T15:02:42.927Z,96167.25
2022-10-22T15:05:09.727Z,96177.47
2022-10-22T15:07:36.933Z,96178.19
2022-10-22T15:10:05.134Z,96181.72
2022-10-22T15:12:32.114Z,96178.81
2022-10-22T15:14:58.651Z,96184.56
2022-10-22T15:17:25.124Z,96185.94
2022-10-22T15:19:53.066Z,96185.91
2022-10-22T15:22:19.966Z,96180.75
2022-10-22T15:24:48.406Z,96195.31
2022-10-22T15:27:15.913Z,96189.53
2022-10-22T15:29:42.789Z,96193.09
2022-10-22T15:32:13.026Z,96197.41
2022-10-22T15:34:40.263Z,96197.31
2022-10-22T15:37:10.813Z,96190.69
2022-10-22T15:39:41.339Z,96197.28
2022-10-22T15:42:09.246Z,96207.41
2022-10-22T15:44:36.076Z,96208.81
2022-10-22T15:47:06.290Z,96215.28
2022-10-22T15:49:35.852Z,96220.97
2022-10-22T15:52:02.721Z,96218.75
2022-10-22T15:54:30.446Z,96224.53
2022-10-22T15:56:58.424Z,96224.47
2022-10-22T15:59:25.497Z,96228.72
2022-10-22T16:01:52.299Z,96231.56
2022-10-22T16:04:18.847Z,96225.59
2022-10-22T16:06:52.416Z,96221.22
2022-10-22T16:09:22.174Z,96235.72
2022-10-22T16:11:50.211Z,96232.00
2022-10-22T16:14:19.755Z,96235.59
2022-10-22T16:16:49.045Z,96234.06
2022-10-22T16:19:17.501Z,96236.84
2022-10-22T16:21:52.594Z,96233.19
2022-10-22T16:24:19.999Z,96238.16
2022-10-22T16:26:50.267Z,96240.22
2022-10-22T16:29:16.838Z,96235.84
2022-10-22T16:31:44.106Z,96239.41
2022-10-22T16:34:11.222Z,96247.97
2022-10-22T16:36:38.848Z,96235.66
2022-10-22T16:39:06.540Z,96240.56
2022-10-22T16:41:36.906Z,96246.25
2022-10-22T16:44:06.659Z,96247.53
2022-10-22T16:46:39.397Z,96249.53
2022-10-22T16:49:08.831Z,96259.53
2022-10-22T16:51:36.175Z,96262.91
2022-10-22T16:54:22.235Z,96248.84
2022-10-22T16:56:57.221Z,96269.78
2022-10-22T16:59:26.165Z,96273.88
2022-10-22T17:01:53.024Z,96271.50
2022-10-22T17:04:19.616Z,96275.38
2022-10-22T17:06:46.159Z,96257.69
2022-10-22T17:09:13.763Z,96278.47
2022-10-22T17:11:42.725Z,96283.53
2022-10-22T17:14:11.419Z,96276.75
2022-10-22T17:16:37.871Z,96283.91
2022-10-22T17:19:05.248Z,96287.41
2022-10-22T17:21:31.884Z,96270.50
2022-10-22T17:23:58.588Z,96279.13
2022-10-22T17:26:26.898Z,96286.44
2022-10-22T17:28:53.940Z,96287.84
2022-10-22T17:31:21.966Z,96294.88
2022-10-22T17:33:50.700Z,96281.56
2022-10-22T17:36:18.204Z,96293.06
2022-10-22T17:38:53.610Z,96275.91
2022-10-22T17:41:22.726Z,96299.22
2022-10-22T17:43:49.622Z,96302.03
2022-10-22T17:46:19.429Z,96295.09
2022-10-22T17:48:52.891Z,96300.25
2022-10-22T17:51:20.368Z,96312.91
2022-10-22T17:53:50.141Z,96314.03
2022-10-22T17:56:22.014Z,96319.09
2022-10-22T17:58:49.215Z,96301.84
2022-10-22T18:01:24.873Z,96324.38
2022-10-22T18:03:52.979Z,96330.53
2022-10-22T18:06:19.971Z,96317.06
2022-10-22T18:08:47.059Z,96328.84
2022-10-22T18:11:18.057Z,96326.50
2022-10-22T18:13:44.968Z,96320.38
2022-10-22T18:16:12.513Z,96331.81
2022-10-22T18:18:39.197Z,96328.16
2022-10-22T18:21:05.898Z,96321.50
2022-10-22T18:23:33.402Z,96323.31
2022-10-22T18:25:59.895Z,96332.56
2022-10-22T18:28:27.528Z,96333.97
2022-10-22T18:30:55.035Z,96301.84
2022-10-22T18:33:24.087Z,96335.44
2022-10-22T18:35:55.177Z,96331.69
2022-10-22T18:38:23.649Z,96332.63
2022-10-22T18:40:50.431Z,96323.78
2022-10-22T18:43:18.328Z,96312.00
2022-10-22T18:45:46.771Z,96325.84
2022-10-22T18:48:15.113Z,96322.84
2022-10-22T18:51:00.570Z,96318.69
2022-10-22T18:53:27.524Z,96328.16
2022-10-22T18:56:05.160Z,96331.72
2022-10-22T18:58:37.194Z,96320.00
2022-10-22T19:01:12.292Z,96322.97
2022-10-22T19:03:38.944Z,96325.06
2022-10-22T19:06:05.722Z,96311.81
2022-10-22T19:08:32.951Z,96323.97
2022-10-22T19:11:05.874Z,96330.78
2022-10-22T19:13:32.393Z,96329.91
2022-10-22T19:16:02.811Z,96321.22
2022-10-22T19:18:29.565Z,96309.44
2022-10-22T19:21:01.673Z,96321.94
2022-10-22T19:23:32.200Z,96316.19
2022-10-22T19:26:10.119Z,96313.34
2022-10-22T19:28:38.712Z,96296.97
2022-10-22T19:31:07.065Z,96310.59
2022-10-22T19:33:34.947Z,96313.53
2022-10-22T19:36:09.666Z,96312.00
2022-10-22T19:38:40.439Z,96311.25
2022-10-22T19:41:08.051Z,96312.88
2022-10-22T19:43:34.711Z,96315.84
2022-10-22T19:46:01.259Z,96314.19
2022-10-22T19:48:29.713Z,96316.19
2022-10-22T19:51:04.294Z,96315.19
2022-10-22T19:53:33.187Z,96315.75
2022-10-22T19:56:02.293Z,96330.94
2022-10-22T19:58:32.143Z,96326.34
2022-10-22T20:01:13.037Z,96317.25
2022-10-22T20:03:39.857Z,96310.47
2022-10-22T20:06:08.435Z,96322.72
2022-10-22T20:08:38.912Z,96321.19
2022-10-22T20:11:11.133Z,96317.38
2022-10-22T20:16:11.107Z,96321.97
2022-10-22T20:18:40.297Z,96320.97
2022-10-22T20:21:08.292Z,96321.81
2022-10-22T20:23:35.124Z,96329.75
2022-10-22T20:26:01.671Z,96289.69
2022-10-22T20:28:28.269Z,96321.38
2022-10-22T20:30:54.846Z,96322.78
2022-10-22T20:33:21.515Z,96319.31
2022-10-22T20:36:01.562Z,96330.38
2022-10-22T20:38:28.656Z,96340.53
2022-10-22T20:41:19.944Z,96331.13
2022-10-22T20:43:47.660Z,96335.53
2022-10-22T20:46:19.933Z,96336.00
2022-10-22T20:48:46.729Z,96349.69
2022-10-22T20:51:13.350Z,96343.72
2022-10-22T20:53:43.932Z,96357.38
2022-10-22T20:56:11.119Z,96345.19
2022-10-22T20:58:37.967Z,96346.75
2022-10-22T21:01:10.268Z,96344.59
2022-10-22T21:03:37.586Z,96335.03
2022-10-22T21:06:05.923Z,96347.06
2022-10-22T21:08:32.482Z,96346.28
2022-10-22T21:10:59.015Z,96337.81
2022-10-22T21:13:25.571Z,96350.00
2022-10-22T21:15:52.083Z,96332.38
2022-10-22T21:18:18.579Z,96348.34
2022-10-22T21:20:45.093Z,96346.88
2022-10-22T21:23:12.192Z,96334.50
2022-10-22T21:25:41.961Z,96345.22
2022-10-22T21:28:11.008Z,96348.00
2022-10-22T21:30:44.775Z,96313.13
2022-10-22T21:33:11.343Z,96337.09
2022-10-22T21:35:37.839Z,96328.81
2022-10-22T21:38:05.182Z,96344.22
2022-10-22T21:40:37.405Z,96343.97
2022-10-22T21:43:04.032Z,96336.66
2022-10-22T21:45:30.657Z,96335.19
2022-10-22T21:47:57.421Z,96330.94
2022-10-22T21:50:24.040Z,96327.44
2022-10-22T21:52:50.625Z,96316.63
2022-10-22T21:55:17.302Z,96319.56
2022-10-22T21:57:44.156Z,96316.16
2022-10-22T22:00:11.884Z,96324.56
2022-10-22T22:02:45.421Z,96327.53
2022-10-22T22:05:12.082Z,96328.91
2022-10-22T22:07:38.889Z,96325.38
2022-10-22T22:10:07.325Z,96322.53
2022-10-22T22:12:33.897Z,96330.47
2022-10-22T22:15:00.631Z,96312.66
2022-10-22T22:17:32.470Z,96306.13
2022-10-22T22:20:10.506Z,96313.13
2022-10-22T22:22:50.741Z,96310.25
2022-10-22T22:25:25.823Z,96309.59
2022-10-22T22:27:55.849Z,96316.53
2022-10-22T22:32:02.578Z,96301.59
2022-10-22T22:34:31.740Z,96312.38
2022-10-22T22:36:58.265Z,96308.59
2022-10-22T22:39:47.227Z,96309.25
2022-10-22T22:42:18.217Z,96314.22
2022-10-22T22:45:04.576Z,96311.09
2022-10-22T22:48:01.155Z,96307.31
2022-10-22T22:50:46.590Z,96303.78
2022-10-22T22:53:35.529Z,96286.81
2022-10-22T22:59:28.381Z,96296.78
2022-10-22T23:02:20.954Z,96294.94
2022-10-22T23:04:50.415Z,96289.66
2022-10-22T23:07:17.021Z,96281.50
2022-10-22T23:10:26.982Z,96296.16
2022-10-22T23:13:04.884Z,96274.38
2022-10-22T23:15:33.814Z,96295.56
2022-10-22T23:18:01.927Z,96287.72
2022-10-22T23:22:17.534Z,96301.53
2022-10-22T23:23:30.972Z,96281.00
2022-10-22T23:26:15.926Z,96273.78
2022-10-22T23:28:45.587Z,96257.13
2022-10-22T23:34:01.642Z,96273.34
2022-10-22T23:36:28.645Z,96244.91
2022-10-22T23:39:03.454Z,96258.09
2022-10-22T23:41:35.994Z,96259.81
2022-10-22T23:44:04.710Z,96248.13
2022-10-22T23:46:32.706Z,96246.16
2022-10-22T23:49:00.380Z,96240.41
2022-10-22T23:51:28.016Z,96250.25
2022-10-22T23:54:02.181Z,96240.91
2022-10-22T23:56:33.183Z,96249.50
2022-10-22T23:59:09.513Z,96243.69
